sensor_id;sensor_type;location;lat;lon;timestamp;P1;durP1;ratioP1;P2;durP2;ratioP2
57155;SDS011;43023;59.928;10.682;2022-08-25T00:00:40;1.48;;;0.88;;
57155;SDS011;43023;59.928;10.682;2022-08-25T00:03:07;2.47;;;1.00;;
57155;SDS011;43023;59.928;10.682;2022-08-25T00:05:33;0.70;;;0.70;;
57155;SDS011;43023;59.928;10.682;2022-08-25T00:08:00;1.08;;;0.70;;
57155;SDS011;43023;59.928;10.682;2022-08-25T00:10:26;1.92;;;0.70;;
57155;SDS011;43023;59.928;10.682;2022-08-25T00:12:52;0.80;;;0.60;;
57155;SDS011;43023;59.928;10.682;2022-08-25T00:15:19;1.20;;;1.00;;
57155;SDS011;43023;59.928;10.682;2022-08-25T00:17:46;1.05;;;0.88;;
57155;SDS011;43023;59.928;10.682;2022-08-25T00:20:13;1.23;;;1.08;;
57155;SDS011;43023;59.928;10.682;2022-08-25T00:22:39;1.45;;;1.00;;
57155;SDS011;43023;59.928;10.682;2022-08-25T00:25:06;1.00;;;0.60;;
57155;SDS011;43023;59.928;10.682;2022-08-25T00:27:32;1.48;;;0.80;;
57155;SDS011;43023;59.928;10.682;2022-08-25T00:29:58;1.05;;;0.90;;
57155;SDS011;43023;59.928;10.682;2022-08-25T00:32:24;0.45;;;0.45;;
57155;SDS011;43023;59.928;10.682;2022-08-25T00:34:51;0.95;;;0.70;;
57155;SDS011;43023;59.928;10.682;2022-08-25T00:37:17;0.57;;;0.40;;
57155;SDS011;43023;59.928;10.682;2022-08-25T00:39:44;1.05;;;0.90;;
57155;SDS011;43023;59.928;10.682;2022-08-25T00:42:10;2.67;;;0.60;;
57155;SDS011;43023;59.928;10.682;2022-08-25T00:44:37;1.17;;;0.70;;
57155;SDS011;43023;59.928;10.682;2022-08-25T00:47:03;0.50;;;0.50;;
57155;SDS011;43023;59.928;10.682;2022-08-25T00:49:41;1.17;;;0.82;;
57155;SDS011;43023;59.928;10.682;2022-08-25T00:52:09;0.95;;;0.45;;
57155;SDS011;43023;59.928;10.682;2022-08-25T00:54:40;1.20;;;0.63;;
57155;SDS011;43023;59.928;10.682;2022-08-25T00:57:09;1.65;;;0.90;;
57155;SDS011;43023;59.928;10.682;2022-08-25T00:59:37;0.98;;;0.70;;
57155;SDS011;43023;59.928;10.682;2022-08-25T01:02:05;1.02;;;0.50;;
57155;SDS011;43023;59.928;10.682;2022-08-25T01:04:31;1.27;;;0.80;;
57155;SDS011;43023;59.928;10.682;2022-08-25T01:06:57;0.52;;;0.50;;
57155;SDS011;43023;59.928;10.682;2022-08-25T01:09:24;0.90;;;0.85;;
57155;SDS011;43023;59.928;10.682;2022-08-25T01:11:50;1.25;;;0.70;;
57155;SDS011;43023;59.928;10.682;2022-08-25T01:14:18;1.17;;;0.70;;
57155;SDS011;43023;59.928;10.682;2022-08-25T01:16:44;1.45;;;0.90;;
57155;SDS011;43023;59.928;10.682;2022-08-25T01:19:12;1.98;;;0.65;;
57155;SDS011;43023;59.928;10.682;2022-08-25T01:21:40;0.95;;;0.82;;
57155;SDS011;43023;59.928;10.682;2022-08-25T01:24:06;0.75;;;0.60;;
57155;SDS011;43023;59.928;10.682;2022-08-25T01:26:34;0.60;;;0.60;;
57155;SDS011;43023;59.928;10.682;2022-08-25T01:29:03;1.23;;;1.00;;
57155;SDS011;43023;59.928;10.682;2022-08-25T01:31:45;1.67;;;0.70;;
57155;SDS011;43023;59.928;10.682;2022-08-25T01:34:12;0.98;;;0.73;;
57155;SDS011;43023;59.928;10.682;2022-08-25T01:36:40;1.52;;;1.10;;
57155;SDS011;43023;59.928;10.682;2022-08-25T01:39:06;0.70;;;0.70;;
57155;SDS011;43023;59.928;10.682;2022-08-25T01:43:58;1.80;;;0.85;;
57155;SDS011;43023;59.928;10.682;2022-08-25T01:46:25;2.97;;;0.73;;
57155;SDS011;43023;59.928;10.682;2022-08-25T01:48:51;1.23;;;0.70;;
57155;SDS011;43023;59.928;10.682;2022-08-25T01:51:22;1.38;;;1.00;;
57155;SDS011;43023;59.928;10.682;2022-08-25T01:53:49;2.40;;;0.85;;
57155;SDS011;43023;59.928;10.682;2022-08-25T01:56:15;1.05;;;0.93;;
57155;SDS011;43023;59.928;10.682;2022-08-25T01:58:43;0.65;;;0.65;;
57155;SDS011;43023;59.928;10.682;2022-08-25T02:01:11;0.70;;;0.65;;
57155;SDS011;43023;59.928;10.682;2022-08-25T02:03:40;1.17;;;0.75;;
57155;SDS011;43023;59.928;10.682;2022-08-25T02:06:06;0.65;;;0.50;;
57155;SDS011;43023;59.928;10.682;2022-08-25T02:08:32;0.75;;;0.60;;
57155;SDS011;43023;59.928;10.682;2022-08-25T02:10:58;1.55;;;0.52;;
57155;SDS011;43023;59.928;10.682;2022-08-25T02:13:24;0.68;;;0.60;;
57155;SDS011;43023;59.928;10.682;2022-08-25T02:18:54;0.90;;;0.63;;
57155;SDS011;43023;59.928;10.682;2022-08-25T02:21:21;4.32;;;0.60;;
57155;SDS011;43023;59.928;10.682;2022-08-25T02:23:47;1.77;;;0.90;;
57155;SDS011;43023;59.928;10.682;2022-08-25T02:26:13;0.70;;;0.70;;
57155;SDS011;43023;59.928;10.682;2022-08-25T02:28:42;0.70;;;0.70;;
57155;SDS011;43023;59.928;10.682;2022-08-25T02:31:09;1.23;;;0.88;;
57155;SDS011;43023;59.928;10.682;2022-08-25T02:33:35;1.33;;;0.70;;
57155;SDS011;43023;59.928;10.682;2022-08-25T02:36:01;0.50;;;0.50;;
57155;SDS011;43023;59.928;10.682;2022-08-25T02:38:27;1.15;;;1.02;;
57155;SDS011;43023;59.928;10.682;2022-08-25T02:40:54;1.05;;;0.80;;
57155;SDS011;43023;59.928;10.682;2022-08-25T02:43:20;1.75;;;0.68;;
57155;SDS011;43023;59.928;10.682;2022-08-25T02:45:47;2.28;;;0.80;;
57155;SDS011;43023;59.928;10.682;2022-08-25T02:48:13;0.50;;;0.47;;
57155;SDS011;43023;59.928;10.682;2022-08-25T02:50:39;1.25;;;0.73;;
57155;SDS011;43023;59.928;10.682;2022-08-25T02:53:05;0.82;;;0.80;;
57155;SDS011;43023;59.928;10.682;2022-08-25T02:55:31;0.80;;;0.80;;
57155;SDS011;43023;59.928;10.682;2022-08-25T02:57:57;1.02;;;0.80;;
57155;SDS011;43023;59.928;10.682;2022-08-25T03:00:23;3.80;;;0.70;;
57155;SDS011;43023;59.928;10.682;2022-08-25T03:02:50;0.85;;;0.85;;
57155;SDS011;43023;59.928;10.682;2022-08-25T03:05:16;1.70;;;0.70;;
57155;SDS011;43023;59.928;10.682;2022-08-25T03:07:42;1.13;;;0.70;;
57155;SDS011;43023;59.928;10.682;2022-08-25T03:10:10;0.75;;;0.70;;
57155;SDS011;43023;59.928;10.682;2022-08-25T03:12:37;0.63;;;0.60;;
57155;SDS011;43023;59.928;10.682;2022-08-25T03:15:05;0.95;;;0.52;;
57155;SDS011;43023;59.928;10.682;2022-08-25T03:17:31;0.70;;;0.70;;
57155;SDS011;43023;59.928;10.682;2022-08-25T03:19:57;0.80;;;0.80;;
57155;SDS011;43023;59.928;10.682;2022-08-25T03:22:23;1.65;;;0.60;;
57155;SDS011;43023;59.928;10.682;2022-08-25T03:24:49;0.60;;;0.60;;
57155;SDS011;43023;59.928;10.682;2022-08-25T03:27:16;0.73;;;0.73;;
57155;SDS011;43023;59.928;10.682;2022-08-25T03:29:42;0.93;;;0.70;;
57155;SDS011;43023;59.928;10.682;2022-08-25T03:32:08;0.52;;;0.50;;
57155;SDS011;43023;59.928;10.682;2022-08-25T03:34:34;0.85;;;0.57;;
57155;SDS011;43023;59.928;10.682;2022-08-25T03:37:00;1.98;;;0.60;;
57155;SDS011;43023;59.928;10.682;2022-08-25T03:39:26;1.70;;;1.05;;
57155;SDS011;43023;59.928;10.682;2022-08-25T03:41:53;0.50;;;0.50;;
57155;SDS011;43023;59.928;10.682;2022-08-25T03:44:19;1.52;;;0.60;;
57155;SDS011;43023;59.928;10.682;2022-08-25T03:46:46;0.73;;;0.50;;
57155;SDS011;43023;59.928;10.682;2022-08-25T03:49:13;1.10;;;0.68;;
57155;SDS011;43023;59.928;10.682;2022-08-25T03:51:44;1.42;;;0.55;;
57155;SDS011;43023;59.928;10.682;2022-08-25T03:54:11;0.47;;;0.47;;
57155;SDS011;43023;59.928;10.682;2022-08-25T03:56:38;0.50;;;0.50;;
57155;SDS011;43023;59.928;10.682;2022-08-25T03:59:04;0.60;;;0.60;;
57155;SDS011;43023;59.928;10.682;2022-08-25T04:01:33;1.08;;;0.63;;
57155;SDS011;43023;59.928;10.682;2022-08-25T04:04:00;0.38;;;0.38;;
57155;SDS011;43023;59.928;10.682;2022-08-25T04:06:26;1.15;;;0.55;;
57155;SDS011;43023;59.928;10.682;2022-08-25T04:08:52;0.70;;;0.70;;
57155;SDS011;43023;59.928;10.682;2022-08-25T04:11:20;0.75;;;0.70;;
57155;SDS011;43023;59.928;10.682;2022-08-25T04:13:46;0.40;;;0.40;;
57155;SDS011;43023;59.928;10.682;2022-08-25T04:16:14;0.50;;;0.50;;
57155;SDS011;43023;59.928;10.682;2022-08-25T04:18:41;0.65;;;0.63;;
57155;SDS011;43023;59.928;10.682;2022-08-25T04:21:07;0.68;;;0.60;;
57155;SDS011;43023;59.928;10.682;2022-08-25T04:23:34;1.17;;;0.55;;
57155;SDS011;43023;59.928;10.682;2022-08-25T04:26:00;0.75;;;0.60;;
57155;SDS011;43023;59.928;10.682;2022-08-25T04:28:27;0.50;;;0.50;;
57155;SDS011;43023;59.928;10.682;2022-08-25T04:30:53;0.82;;;0.82;;
57155;SDS011;43023;59.928;10.682;2022-08-25T04:33:20;0.40;;;0.40;;
57155;SDS011;43023;59.928;10.682;2022-08-25T04:35:47;0.50;;;0.50;;
57155;SDS011;43023;59.928;10.682;2022-08-25T04:38:13;0.55;;;0.55;;
57155;SDS011;43023;59.928;10.682;2022-08-25T04:40:39;0.70;;;0.70;;
57155;SDS011;43023;59.928;10.682;2022-08-25T04:43:05;1.27;;;1.00;;
57155;SDS011;43023;59.928;10.682;2022-08-25T04:45:39;1.45;;;0.57;;
57155;SDS011;43023;59.928;10.682;2022-08-25T04:48:05;1.48;;;0.65;;
57155;SDS011;43023;59.928;10.682;2022-08-25T04:50:31;1.23;;;0.90;;
57155;SDS011;43023;59.928;10.682;2022-08-25T04:52:57;0.68;;;0.63;;
57155;SDS011;43023;59.928;10.682;2022-08-25T04:55:23;0.52;;;0.50;;
57155;SDS011;43023;59.928;10.682;2022-08-25T04:57:49;2.95;;;0.77;;
57155;SDS011;43023;59.928;10.682;2022-08-25T05:00:16;1.23;;;0.77;;
57155;SDS011;43023;59.928;10.682;2022-08-25T05:02:42;1.33;;;0.80;;
57155;SDS011;43023;59.928;10.682;2022-08-25T05:05:08;1.00;;;0.80;;
57155;SDS011;43023;59.928;10.682;2022-08-25T05:07:34;1.23;;;0.98;;
57155;SDS011;43023;59.928;10.682;2022-08-25T05:10:00;3.00;;;0.90;;
57155;SDS011;43023;59.928;10.682;2022-08-25T05:12:26;0.68;;;0.60;;
57155;SDS011;43023;59.928;10.682;2022-08-25T05:14:52;3.72;;;0.68;;
57155;SDS011;43023;59.928;10.682;2022-08-25T05:17:18;1.00;;;0.77;;
57155;SDS011;43023;59.928;10.682;2022-08-25T05:19:44;1.60;;;0.90;;
57155;SDS011;43023;59.928;10.682;2022-08-25T05:22:10;2.33;;;0.50;;
57155;SDS011;43023;59.928;10.682;2022-08-25T05:24:36;1.35;;;0.68;;
57155;SDS011;43023;59.928;10.682;2022-08-25T05:27:03;2.15;;;0.77;;
57155;SDS011;43023;59.928;10.682;2022-08-25T05:29:29;0.95;;;0.63;;
57155;SDS011;43023;59.928;10.682;2022-08-25T05:31:55;0.98;;;0.88;;
57155;SDS011;43023;59.928;10.682;2022-08-25T05:34:21;2.28;;;1.00;;
57155;SDS011;43023;59.928;10.682;2022-08-25T05:36:48;4.80;;;0.95;;
57155;SDS011;43023;59.928;10.682;2022-08-25T05:39:15;1.10;;;1.00;;
57155;SDS011;43023;59.928;10.682;2022-08-25T05:41:42;1.45;;;0.90;;
57155;SDS011;43023;59.928;10.682;2022-08-25T05:44:08;1.25;;;0.95;;
57155;SDS011;43023;59.928;10.682;2022-08-25T05:46:34;0.65;;;0.60;;
57155;SDS011;43023;59.928;10.682;2022-08-25T05:49:01;2.58;;;0.70;;
57155;SDS011;43023;59.928;10.682;2022-08-25T05:51:27;3.15;;;0.82;;
57155;SDS011;43023;59.928;10.682;2022-08-25T05:53:53;2.63;;;1.00;;
57155;SDS011;43023;59.928;10.682;2022-08-25T05:56:19;0.98;;;0.85;;
57155;SDS011;43023;59.928;10.682;2022-08-25T05:58:45;1.85;;;0.80;;
57155;SDS011;43023;59.928;10.682;2022-08-25T06:01:19;0.98;;;0.85;;
57155;SDS011;43023;59.928;10.682;2022-08-25T06:04:04;2.25;;;0.73;;
57155;SDS011;43023;59.928;10.682;2022-08-25T06:06:30;3.13;;;0.80;;
57155;SDS011;43023;59.928;10.682;2022-08-25T06:08:56;3.90;;;0.90;;
57155;SDS011;43023;59.928;10.682;2022-08-25T06:11:22;3.95;;;0.75;;
57155;SDS011;43023;59.928;10.682;2022-08-25T06:13:48;1.20;;;0.60;;
57155;SDS011;43023;59.928;10.682;2022-08-25T06:16:14;1.67;;;0.88;;
57155;SDS011;43023;59.928;10.682;2022-08-25T06:18:40;2.97;;;0.77;;
57155;SDS011;43023;59.928;10.682;2022-08-25T06:21:07;1.25;;;0.95;;
57155;SDS011;43023;59.928;10.682;2022-08-25T06:23:33;1.17;;;0.98;;
57155;SDS011;43023;59.928;10.682;2022-08-25T06:25:59;3.00;;;0.88;;
57155;SDS011;43023;59.928;10.682;2022-08-25T06:28:25;1.05;;;0.50;;
57155;SDS011;43023;59.928;10.682;2022-08-25T06:30:56;0.90;;;0.80;;
57155;SDS011;43023;59.928;10.682;2022-08-25T06:33:22;1.00;;;0.90;;
57155;SDS011;43023;59.928;10.682;2022-08-25T06:35:48;2.17;;;0.65;;
57155;SDS011;43023;59.928;10.682;2022-08-25T06:38:17;2.90;;;0.80;;
57155;SDS011;43023;59.928;10.682;2022-08-25T06:40:45;2.13;;;0.90;;
57155;SDS011;43023;59.928;10.682;2022-08-25T06:43:12;1.55;;;0.80;;
57155;SDS011;43023;59.928;10.682;2022-08-25T06:45:38;2.40;;;0.90;;
57155;SDS011;43023;59.928;10.682;2022-08-25T06:48:04;4.10;;;1.10;;
57155;SDS011;43023;59.928;10.682;2022-08-25T06:50:30;0.80;;;0.40;;
57155;SDS011;43023;59.928;10.682;2022-08-25T06:52:56;3.00;;;0.80;;
57155;SDS011;43023;59.928;10.682;2022-08-25T06:55:22;2.90;;;0.60;;
57155;SDS011;43023;59.928;10.682;2022-08-25T06:57:51;1.75;;;1.02;;
57155;SDS011;43023;59.928;10.682;2022-08-25T07:00:17;1.52;;;0.73;;
57155;SDS011;43023;59.928;10.682;2022-08-25T07:02:43;1.30;;;0.70;;
57155;SDS011;43023;59.928;10.682;2022-08-25T07:05:11;1.27;;;0.70;;
57155;SDS011;43023;59.928;10.682;2022-08-25T07:07:37;1.73;;;0.73;;
57155;SDS011;43023;59.928;10.682;2022-08-25T07:10:03;2.15;;;0.88;;
57155;SDS011;43023;59.928;10.682;2022-08-25T07:12:29;0.98;;;0.75;;
57155;SDS011;43023;59.928;10.682;2022-08-25T07:14:55;1.75;;;0.77;;
57155;SDS011;43023;59.928;10.682;2022-08-25T07:17:21;0.55;;;0.55;;
57155;SDS011;43023;59.928;10.682;2022-08-25T07:19:48;1.70;;;0.50;;
57155;SDS011;43023;59.928;10.682;2022-08-25T07:22:14;1.30;;;0.80;;
57155;SDS011;43023;59.928;10.682;2022-08-25T07:24:40;1.00;;;0.80;;
57155;SDS011;43023;59.928;10.682;2022-08-25T07:27:07;0.93;;;0.60;;
57155;SDS011;43023;59.928;10.682;2022-08-25T07:29:33;1.90;;;0.80;;
57155;SDS011;43023;59.928;10.682;2022-08-25T07:32:02;1.05;;;0.75;;
57155;SDS011;43023;59.928;10.682;2022-08-25T07:34:29;0.90;;;0.60;;
57155;SDS011;43023;59.928;10.682;2022-08-25T07:37:14;1.20;;;0.75;;
57155;SDS011;43023;59.928;10.682;2022-08-25T07:39:40;0.80;;;0.80;;
57155;SDS011;43023;59.928;10.682;2022-08-25T07:42:06;0.95;;;0.63;;
57155;SDS011;43023;59.928;10.682;2022-08-25T07:44:33;2.40;;;0.82;;
57155;SDS011;43023;59.928;10.682;2022-08-25T07:46:59;1.38;;;0.70;;
57155;SDS011;43023;59.928;10.682;2022-08-25T07:49:25;1.75;;;0.47;;
57155;SDS011;43023;59.928;10.682;2022-08-25T07:51:52;1.08;;;0.60;;
57155;SDS011;43023;59.928;10.682;2022-08-25T07:54:18;2.67;;;1.17;;
57155;SDS011;43023;59.928;10.682;2022-08-25T07:56:44;1.80;;;0.90;;
57155;SDS011;43023;59.928;10.682;2022-08-25T07:59:10;5.38;;;1.38;;
57155;SDS011;43023;59.928;10.682;2022-08-25T08:01:36;5.72;;;1.67;;
57155;SDS011;43023;59.928;10.682;2022-08-25T08:04:03;6.95;;;2.20;;
57155;SDS011;43023;59.928;10.682;2022-08-25T08:06:29;3.35;;;1.52;;
57155;SDS011;43023;59.928;10.682;2022-08-25T08:08:55;2.95;;;1.70;;
57155;SDS011;43023;59.928;10.682;2022-08-25T08:11:25;2.17;;;0.98;;
57155;SDS011;43023;59.928;10.682;2022-08-25T08:13:53;2.63;;;1.00;;
57155;SDS011;43023;59.928;10.682;2022-08-25T08:16:19;7.30;;;1.52;;
57155;SDS011;43023;59.928;10.682;2022-08-25T08:18:46;3.83;;;1.00;;
57155;SDS011;43023;59.928;10.682;2022-08-25T08:21:13;3.88;;;0.98;;
57155;SDS011;43023;59.928;10.682;2022-08-25T08:23:39;2.17;;;0.93;;
57155;SDS011;43023;59.928;10.682;2022-08-25T08:26:05;4.50;;;0.90;;
57155;SDS011;43023;59.928;10.682;2022-08-25T08:28:31;4.55;;;0.80;;
57155;SDS011;43023;59.928;10.682;2022-08-25T08:30:57;7.43;;;1.45;;
57155;SDS011;43023;59.928;10.682;2022-08-25T08:33:24;2.65;;;1.00;;
57155;SDS011;43023;59.928;10.682;2022-08-25T08:36:00;1.45;;;1.00;;
57155;SDS011;43023;59.928;10.682;2022-08-25T08:38:26;2.65;;;1.08;;
57155;SDS011;43023;59.928;10.682;2022-08-25T08:41:02;5.03;;;1.35;;
57155;SDS011;43023;59.928;10.682;2022-08-25T08:43:49;2.20;;;1.52;;
57155;SDS011;43023;59.928;10.682;2022-08-25T08:46:17;2.33;;;1.17;;
57155;SDS011;43023;59.928;10.682;2022-08-25T08:49:05;3.03;;;1.33;;
57155;SDS011;43023;59.928;10.682;2022-08-25T08:51:37;3.45;;;1.75;;
57155;SDS011;43023;59.928;10.682;2022-08-25T08:54:12;2.53;;;1.10;;
57155;SDS011;43023;59.928;10.682;2022-08-25T08:56:45;4.18;;;1.15;;
57155;SDS011;43023;59.928;10.682;2022-08-25T08:59:16;1.88;;;1.00;;
57155;SDS011;43023;59.928;10.682;2022-08-25T09:01:51;4.35;;;1.05;;
57155;SDS011;43023;59.928;10.682;2022-08-25T09:04:40;3.63;;;0.88;;
57155;SDS011;43023;59.928;10.682;2022-08-25T09:07:12;3.03;;;1.15;;
57155;SDS011;43023;59.928;10.682;2022-08-25T09:09:40;2.25;;;1.23;;
57155;SDS011;43023;59.928;10.682;2022-08-25T09:30:27;4.50;;;1.20;;
57155;SDS011;43023;59.928;10.682;2022-08-25T09:32:59;2.28;;;1.00;;
57155;SDS011;43023;59.928;10.682;2022-08-25T09:35:34;5.53;;;1.60;;
57155;SDS011;43023;59.928;10.682;2022-08-25T09:38:05;1.95;;;1.05;;
57155;SDS011;43023;59.928;10.682;2022-08-25T09:40:33;1.65;;;0.93;;
57155;SDS011;43023;59.928;10.682;2022-08-25T09:43:00;1.63;;;1.02;;
57155;SDS011;43023;59.928;10.682;2022-08-25T09:45:39;3.83;;;1.40;;
57155;SDS011;43023;59.928;10.682;2022-08-25T09:50:50;2.72;;;1.40;;
57155;SDS011;43023;59.928;10.682;2022-08-25T09:53:17;1.80;;;1.38;;
57155;SDS011;43023;59.928;10.682;2022-08-25T09:55:45;5.07;;;1.50;;
57155;SDS011;43023;59.928;10.682;2022-08-25T09:58:14;3.33;;;1.58;;
57155;SDS011;43023;59.928;10.682;2022-08-25T10:00:40;2.35;;;1.83;;
57155;SDS011;43023;59.928;10.682;2022-08-25T10:03:40;1.50;;;1.10;;
57155;SDS011;43023;59.928;10.682;2022-08-25T10:08:36;4.68;;;1.33;;
57155;SDS011;43023;59.928;10.682;2022-08-25T10:11:05;3.47;;;1.20;;
57155;SDS011;43023;59.928;10.682;2022-08-25T10:13:34;6.10;;;1.92;;
57155;SDS011;43023;59.928;10.682;2022-08-25T10:16:05;1.23;;;1.10;;
57155;SDS011;43023;59.928;10.682;2022-08-25T10:18:31;2.47;;;1.50;;
57155;SDS011;43023;59.928;10.682;2022-08-25T10:21:02;5.57;;;1.35;;
57155;SDS011;43023;59.928;10.682;2022-08-25T10:23:28;2.85;;;1.40;;
57155;SDS011;43023;59.928;10.682;2022-08-25T10:25:55;2.53;;;1.52;;
57155;SDS011;43023;59.928;10.682;2022-08-25T10:28:48;7.10;;;2.40;;
57155;SDS011;43023;59.928;10.682;2022-08-25T10:33:56;5.35;;;1.38;;
57155;SDS011;43023;59.928;10.682;2022-08-25T10:36:31;2.10;;;1.05;;
57155;SDS011;43023;59.928;10.682;2022-08-25T10:39:01;3.17;;;1.55;;
57155;SDS011;43023;59.928;10.682;2022-08-25T10:41:43;2.65;;;1.48;;
57155;SDS011;43023;59.928;10.682;2022-08-25T10:47:09;4.32;;;1.20;;
57155;SDS011;43023;59.928;10.682;2022-08-25T10:49:39;2.17;;;1.27;;
57155;SDS011;43023;59.928;10.682;2022-08-25T10:52:23;6.00;;;1.30;;
57155;SDS011;43023;59.928;10.682;2022-08-25T10:54:57;2.70;;;1.27;;
57155;SDS011;43023;59.928;10.682;2022-08-25T11:05:25;4.03;;;1.50;;
57155;SDS011;43023;59.928;10.682;2022-08-25T11:07:58;1.38;;;1.27;;
57155;SDS011;43023;59.928;10.682;2022-08-25T11:10:30;1.33;;;1.10;;
57155;SDS011;43023;59.928;10.682;2022-08-25T11:12:58;2.53;;;1.27;;
57155;SDS011;43023;59.928;10.682;2022-08-25T11:15:35;2.38;;;1.25;;
57155;SDS011;43023;59.928;10.682;2022-08-25T11:18:05;2.15;;;1.20;;
57155;SDS011;43023;59.928;10.682;2022-08-25T11:20:34;3.90;;;1.30;;
57155;SDS011;43023;59.928;10.682;2022-08-25T11:24:05;1.40;;;0.90;;
57155;SDS011;43023;59.928;10.682;2022-08-25T11:25:59;3.42;;;1.10;;
57155;SDS011;43023;59.928;10.682;2022-08-25T11:30:54;4.60;;;1.10;;
57155;SDS011;43023;59.928;10.682;2022-08-25T11:33:21;2.35;;;1.20;;
57155;SDS011;43023;59.928;10.682;2022-08-25T11:35:52;1.67;;;1.17;;
57155;SDS011;43023;59.928;10.682;2022-08-25T11:51:45;2.90;;;1.35;;
57155;SDS011;43023;59.928;10.682;2022-08-25T11:57:00;3.53;;;1.00;;
57155;SDS011;43023;59.928;10.682;2022-08-25T12:04:54;1.08;;;0.80;;
57155;SDS011;43023;59.928;10.682;2022-08-25T12:07:21;1.88;;;1.20;;
57155;SDS011;43023;59.928;10.682;2022-08-25T12:12:27;6.18;;;1.42;;
57155;SDS011;43023;59.928;10.682;2022-08-25T12:14:53;2.33;;;0.85;;
57155;SDS011;43023;59.928;10.682;2022-08-25T12:17:23;2.60;;;0.93;;
57155;SDS011;43023;59.928;10.682;2022-08-25T12:19:54;1.58;;;1.00;;
57155;SDS011;43023;59.928;10.682;2022-08-25T12:25:21;1.77;;;0.88;;
57155;SDS011;43023;59.928;10.682;2022-08-25T12:30:12;2.30;;;0.98;;
57155;SDS011;43023;59.928;10.682;2022-08-25T12:32:59;1.35;;;0.85;;
57155;SDS011;43023;59.928;10.682;2022-08-25T12:35:32;1.83;;;0.90;;
57155;SDS011;43023;59.928;10.682;2022-08-25T12:38:15;1.10;;;0.82;;
57155;SDS011;43023;59.928;10.682;2022-08-25T12:43:20;3.20;;;1.15;;
57155;SDS011;43023;59.928;10.682;2022-08-25T12:45:47;0.77;;;0.70;;
57155;SDS011;43023;59.928;10.682;2022-08-25T12:51:02;1.92;;;0.73;;
57155;SDS011;43023;59.928;10.682;2022-08-25T12:56:13;0.73;;;0.70;;
57155;SDS011;43023;59.928;10.682;2022-08-25T13:07:02;2.15;;;1.00;;
57155;SDS011;43023;59.928;10.682;2022-08-25T13:09:43;4.50;;;0.98;;
57155;SDS011;43023;59.928;10.682;2022-08-25T13:14:44;3.03;;;1.05;;
57155;SDS011;43023;59.928;10.682;2022-08-25T13:17:11;1.48;;;1.00;;
57155;SDS011;43023;59.928;10.682;2022-08-25T13:19:49;3.17;;;1.05;;
57155;SDS011;43023;59.928;10.682;2022-08-25T13:22:15;4.47;;;2.10;;
57155;SDS011;43023;59.928;10.682;2022-08-25T13:24:42;4.22;;;2.05;;
57155;SDS011;43023;59.928;10.682;2022-08-25T13:27:16;5.63;;;2.00;;
57155;SDS011;43023;59.928;10.682;2022-08-25T13:29:51;3.10;;;1.48;;
57155;SDS011;43023;59.928;10.682;2022-08-25T13:32:24;6.53;;;2.08;;
57155;SDS011;43023;59.928;10.682;2022-08-25T13:34:50;3.85;;;1.85;;
57155;SDS011;43023;59.928;10.682;2022-08-25T13:37:21;7.95;;;1.60;;
57155;SDS011;43023;59.928;10.682;2022-08-25T13:42:41;5.20;;;2.28;;
57155;SDS011;43023;59.928;10.682;2022-08-25T13:45:07;8.65;;;2.00;;
57155;SDS011;43023;59.928;10.682;2022-08-25T13:47:38;4.03;;;1.38;;
57155;SDS011;43023;59.928;10.682;2022-08-25T13:52:50;4.70;;;1.77;;
57155;SDS011;43023;59.928;10.682;2022-08-25T13:55:24;5.35;;;1.70;;
57155;SDS011;43023;59.928;10.682;2022-08-25T14:00:33;6.82;;;1.98;;
57155;SDS011;43023;59.928;10.682;2022-08-25T14:03:01;6.72;;;2.38;;
57155;SDS011;43023;59.928;10.682;2022-08-25T14:07:57;4.65;;;1.92;;
57155;SDS011;43023;59.928;10.682;2022-08-25T14:10:37;8.50;;;1.67;;
57155;SDS011;43023;59.928;10.682;2022-08-25T14:15:36;5.60;;;1.42;;
57155;SDS011;43023;59.928;10.682;2022-08-25T14:18:04;4.35;;;1.63;;
57155;SDS011;43023;59.928;10.682;2022-08-25T14:20:31;6.82;;;1.50;;
57155;SDS011;43023;59.928;10.682;2022-08-25T14:23:08;3.05;;;1.52;;
57155;SDS011;43023;59.928;10.682;2022-08-25T14:25:38;2.65;;;1.38;;
57155;SDS011;43023;59.928;10.682;2022-08-25T14:28:09;6.03;;;1.30;;
57155;SDS011;43023;59.928;10.682;2022-08-25T14:30:38;1.95;;;1.48;;
57155;SDS011;43023;59.928;10.682;2022-08-25T14:33:05;6.40;;;1.60;;
57155;SDS011;43023;59.928;10.682;2022-08-25T14:35:33;2.33;;;1.20;;
57155;SDS011;43023;59.928;10.682;2022-08-25T14:38:00;1.55;;;1.45;;
57155;SDS011;43023;59.928;10.682;2022-08-25T14:40:27;2.40;;;1.30;;
57155;SDS011;43023;59.928;10.682;2022-08-25T14:42:55;6.20;;;2.25;;
57155;SDS011;43023;59.928;10.682;2022-08-25T14:45:21;5.25;;;1.63;;
57155;SDS011;43023;59.928;10.682;2022-08-25T14:47:47;2.20;;;1.35;;
57155;SDS011;43023;59.928;10.682;2022-08-25T14:50:13;1.40;;;1.30;;
57155;SDS011;43023;59.928;10.682;2022-08-25T14:52:40;5.68;;;1.30;;
57155;SDS011;43023;59.928;10.682;2022-08-25T14:55:07;2.45;;;1.30;;
57155;SDS011;43023;59.928;10.682;2022-08-25T14:57:33;1.63;;;1.13;;
57155;SDS011;43023;59.928;10.682;2022-08-25T15:00:00;3.53;;;1.23;;
57155;SDS011;43023;59.928;10.682;2022-08-25T15:02:27;1.17;;;1.02;;
57155;SDS011;43023;59.928;10.682;2022-08-25T15:04:55;2.85;;;1.50;;
57155;SDS011;43023;59.928;10.682;2022-08-25T15:07:22;2.00;;;1.35;;
57155;SDS011;43023;59.928;10.682;2022-08-25T15:10:07;3.38;;;1.40;;
57155;SDS011;43023;59.928;10.682;2022-08-25T15:12:33;2.55;;;1.30;;
57155;SDS011;43023;59.928;10.682;2022-08-25T15:15:00;3.25;;;1.20;;
57155;SDS011;43023;59.928;10.682;2022-08-25T15:17:27;5.03;;;1.88;;
57155;SDS011;43023;59.928;10.682;2022-08-25T15:19:53;1.55;;;1.20;;
57155;SDS011;43023;59.928;10.682;2022-08-25T15:22:19;3.90;;;1.85;;
57155;SDS011;43023;59.928;10.682;2022-08-25T15:24:45;4.25;;;1.42;;
57155;SDS011;43023;59.928;10.682;2022-08-25T15:27:11;2.90;;;1.13;;
57155;SDS011;43023;59.928;10.682;2022-08-25T15:29:39;1.33;;;1.08;;
57155;SDS011;43023;59.928;10.682;2022-08-25T15:32:05;0.95;;;0.93;;
57155;SDS011;43023;59.928;10.682;2022-08-25T15:34:32;2.95;;;1.17;;
57155;SDS011;43023;59.928;10.682;2022-08-25T15:36:59;2.42;;;1.00;;
57155;SDS011;43023;59.928;10.682;2022-08-25T15:39:30;2.65;;;1.83;;
57155;SDS011;43023;59.928;10.682;2022-08-25T15:41:56;1.10;;;1.00;;
57155;SDS011;43023;59.928;10.682;2022-08-25T15:44:22;8.07;;;1.48;;
57155;SDS011;43023;59.928;10.682;2022-08-25T15:46:49;2.83;;;1.30;;
57155;SDS011;43023;59.928;10.682;2022-08-25T15:49:15;2.55;;;1.65;;
57155;SDS011;43023;59.928;10.682;2022-08-25T15:51:42;6.63;;;2.17;;
57155;SDS011;43023;59.928;10.682;2022-08-25T15:54:09;5.55;;;2.08;;
57155;SDS011;43023;59.928;10.682;2022-08-25T15:56:35;3.83;;;1.65;;
57155;SDS011;43023;59.928;10.682;2022-08-25T15:59:04;4.40;;;1.90;;
57155;SDS011;43023;59.928;10.682;2022-08-25T16:01:31;3.88;;;1.33;;
57155;SDS011;43023;59.928;10.682;2022-08-25T16:03:57;9.27;;;1.65;;
57155;SDS011;43023;59.928;10.682;2022-08-25T16:06:24;3.17;;;1.30;;
57155;SDS011;43023;59.928;10.682;2022-08-25T16:08:50;5.90;;;1.90;;
57155;SDS011;43023;59.928;10.682;2022-08-25T16:11:17;5.15;;;1.90;;
57155;SDS011;43023;59.928;10.682;2022-08-25T16:13:43;4.68;;;1.40;;
57155;SDS011;43023;59.928;10.682;2022-08-25T16:16:10;3.40;;;1.33;;
57155;SDS011;43023;59.928;10.682;2022-08-25T16:18:36;2.40;;;1.40;;
57155;SDS011;43023;59.928;10.682;2022-08-25T16:21:02;2.47;;;1.58;;
57155;SDS011;43023;59.928;10.682;2022-08-25T16:23:28;2.78;;;1.67;;
57155;SDS011;43023;59.928;10.682;2022-08-25T16:25:54;1.85;;;1.20;;